Time;durP1;ratioP1;P1;durP2;ratioP2;P2;SDS_P1;SDS_P2;PMS_P1;PMS_P2;Temp;Humidity;BMP_temperature;BMP_pressure;BME280_temperature;BME280_humidity;BME280_pressure;Samples;Min_cycle;Max_cycle;Signal;HPM_P1;HPM_P2
2022/03/22 00:01:36;;;;;;;4.47;4.03;;;;;;;;;;5081558;28;20274;-83
2022/03/22 00:04:04;;;;;;;5.57;4.72;;;;;;;;;;5081652;28;20212;-83
2022/03/22 00:06:33;;;;;;;4.68;4.28;;;;;;;;;;5081250;28;20197;-83
2022/03/22 00:09:00;;;;;;;5.53;5.03;;;;;;;;;;5080535;28;20197;-84
2022/03/22 00:11:28;;;;;;;5.45;4.55;;;;;;;;;;5081309;28;20209;-83
2022/03/22 00:13:55;;;;;;;5.97;5.20;;;;;;;;;;5080354;28;20311;-83
2022/03/22 00:16:22;;;;;;;4.47;4.07;;;;;;;;;;5079891;28;20204;-83
2022/03/22 00:18:50;;;;;;;6.03;5.43;;;;;;;;;;5081371;28;20197;-83
2022/03/22 00:21:19;;;;;;;5.20;4.70;;;;;;;;;;5080163;28;20239;-83
2022/03/22 00:23:48;;;;;;;5.88;5.32;;;;;;;;;;5079829;28;20220;-84
2022/03/22 00:26:15;;;;;;;6.88;4.85;;;;;;;;;;5079261;28;20219;-83
2022/03/22 00:28:43;;;;;;;5.45;4.95;;;;;;;;;;5079299;28;20200;-83
2022/03/22 00:31:11;;;;;;;5.45;4.95;;;;;;;;;;5079885;28;20642;-83
2022/03/22 00:33:39;;;;;;;7.15;5.50;;;;;;;;;;5079563;28;20236;-83
2022/03/22 00:36:06;;;;;;;5.38;4.88;;;;;;;;;;5079982;28;20197;-83
2022/03/22 00:38:34;;;;;;;5.65;5.13;;;;;;;;;;5079827;28;20208;-83
2022/03/22 00:41:03;;;;;;;4.95;4.55;;;;;;;;;;5080166;28;20221;-83
2022/03/22 00:43:30;;;;;;;5.85;5.35;;;;;;;;;;5079257;28;20629;-83
2022/03/22 00:45:57;;;;;;;5.63;5.07;;;;;;;;;;5080476;28;20193;-83
2022/03/22 00:48:24;;;;;;;6.63;5.97;;;;;;;;;;5079241;28;20255;-84
2022/03/22 00:50:52;;;;;;;9.38;6.03;;;;;;;;;;5079854;28;20201;-83
2022/03/22 00:53:19;;;;;;;6.25;5.65;;;;;;;;;;5080350;28;20228;-83
2022/03/22 00:55:47;;;;;;;8.18;6.53;;;;;;;;;;5079984;28;20668;-83
2022/03/22 00:58:16;;;;;;;6.78;5.75;;;;;;;;;;5079386;28;20197;-83
2022/03/22 01:00:44;;;;;;;6.03;5.53;;;;;;;;;;5079438;28;20227;-83
2022/03/22 01:03:11;;;;;;;5.70;5.20;;;;;;;;;;5078534;28;20222;-83
2022/03/22 01:05:39;;;;;;;6.38;5.72;;;;;;;;;;5079342;28;20209;-83
2022/03/22 01:08:09;;;;;;;6.70;6.10;;;;;;;;;;5078243;28;20210;-83
2022/03/22 01:10:41;;;;;;;6.28;5.68;;;;;;;;;;5079520;28;20197;-84
2022/03/22 01:13:11;;;;;;;7.15;6.45;;;;;;;;;;5079274;28;20252;-84
2022/03/22 01:15:42;;;;;;;5.88;5.28;;;;;;;;;;5078732;28;20205;-83
2022/03/22 01:18:11;;;;;;;6.05;5.45;;;;;;;;;;5079831;28;20264;-84
2022/03/22 01:20:42;;;;;;;6.45;5.85;;;;;;;;;;5078929;28;20259;-83
2022/03/22 01:23:10;;;;;;;6.80;6.10;;;;;;;;;;5078339;28;20274;-83
2022/03/22 01:25:39;;;;;;;6.53;5.90;;;;;;;;;;5078150;28;20194;-83
2022/03/22 01:28:09;;;;;;;6.97;6.25;;;;;;;;;;5080808;28;20201;-83
2022/03/22 01:30:39;;;;;;;7.72;6.82;;;;;;;;;;5081934;28;20630;-83
2022/03/22 01:33:08;;;;;;;7.53;6.38;;;;;;;;;;5081699;28;20259;-83
2022/03/22 01:35:36;;;;;;;8.88;6.88;;;;;;;;;;5082149;28;20204;-83
2022/03/22 01:38:03;;;;;;;6.70;5.97;;;;;;;;;;5081974;28;20205;-83
2022/03/22 01:40:32;;;;;;;6.18;5.63;;;;;;;;;;5082351;28;20221;-83
2022/03/22 01:43:00;;;;;;;5.07;4.57;;;;;;;;;;5080720;28;20224;-83
2022/03/22 01:45:28;;;;;;;5.75;5.22;;;;;;;;;;5080405;28;20201;-83
2022/03/22 01:48:00;;;;;;;5.95;5.45;;;;;;;;;;5080720;28;20230;-83
2022/03/22 01:50:29;;;;;;;6.07;5.47;;;;;;;;;;5081041;28;20291;-82
2022/03/22 01:52:58;;;;;;;6.10;5.50;;;;;;;;;;5080879;28;20213;-82
2022/03/22 01:55:26;;;;;;;5.65;5.15;;;;;;;;;;5081413;28;20204;-82
2022/03/22 01:57:54;;;;;;;5.72;5.22;;;;;;;;;;5080441;28;20201;-82
2022/03/22 02:00:22;;;;;;;5.70;4.70;;;;;;;;;;5080904;28;20220;-82
2022/03/22 02:05:55;;;;;;;8.15;7.35;;;;;;;;;;5080117;28;20212;-82
2022/03/22 02:08:25;;;;;;;6.82;6.13;;;;;;;;;;5079554;28;20212;-83
2022/03/22 02:10:53;;;;;;;9.27;7.95;;;;;;;;;;5079937;28;20626;-82
2022/03/22 02:13:20;;;;;;;8.18;6.57;;;;;;;;;;5080153;28;20915;-83
2022/03/22 02:15:52;;;;;;;8.15;7.35;;;;;;;;;;5080085;28;20201;-83
2022/03/22 02:18:20;;;;;;;9.38;8.27;;;;;;;;;;5080785;28;20205;-83
2022/03/22 02:20:49;;;;;;;10.63;8.30;;;;;;;;;;5080094;28;20231;-83
2022/03/22 02:23:21;;;;;;;10.75;8.70;;;;;;;;;;5080185;28;20704;-83
2022/03/22 02:25:50;;;;;;;8.30;7.47;;;;;;;;;;5081537;28;20228;-83
2022/03/22 02:28:19;;;;;;;8.18;7.38;;;;;;;;;;5080001;28;20220;-82
2022/03/22 02:30:48;;;;;;;8.13;7.35;;;;;;;;;;5080535;28;20193;-83
2022/03/22 02:33:15;;;;;;;9.43;7.85;;;;;;;;;;5080256;28;20248;-83
2022/03/22 02:35:42;;;;;;;9.00;7.78;;;;;;;;;;5079993;28;20219;-83
2022/03/22 02:38:10;;;;;;;9.43;7.55;;;;;;;;;;5080538;28;20205;-83
2022/03/22 02:40:38;;;;;;;6.72;5.78;;;;;;;;;;5079927;28;20259;-82
2022/03/22 02:43:07;;;;;;;7.38;6.68;;;;;;;;;;5080163;28;20275;-83
2022/03/22 02:45:34;;;;;;;7.03;6.32;;;;;;;;;;5080673;28;20241;-83
2022/03/22 02:48:01;;;;;;;5.88;5.20;;;;;;;;;;5080064;28;20197;-83
2022/03/22 02:50:29;;;;;;;6.63;5.88;;;;;;;;;;5080158;28;20204;-82
2022/03/22 02:52:56;;;;;;;8.23;6.68;;;;;;;;;;5079137;28;20221;-83
2022/03/22 02:55:24;;;;;;;7.35;6.57;;;;;;;;;;5079846;28;20201;-82
2022/03/22 02:57:51;;;;;;;6.43;5.80;;;;;;;;;;5080168;28;20646;-82
2022/03/22 03:00:20;;;;;;;7.13;6.43;;;;;;;;;;5080165;28;20201;-83
2022/03/22 03:02:50;;;;;;;7.63;6.82;;;;;;;;;;5079669;28;20221;-83
2022/03/22 03:05:18;;;;;;;7.18;5.65;;;;;;;;;;5080039;28;20212;-83
2022/03/22 03:07:46;;;;;;;6.15;5.05;;;;;;;;;;5080004;28;20201;-82
2022/03/22 03:10:14;;;;;;;7.00;5.78;;;;;;;;;;5080407;28;20197;-83
2022/03/22 03:12:41;;;;;;;10.20;5.70;;;;;;;;;;5079817;28;20225;-82
2022/03/22 03:15:10;;;;;;;4.80;4.40;;;;;;;;;;5080098;28;20197;-83
2022/03/22 03:17:40;;;;;;;5.90;4.43;;;;;;;;;;5079404;28;20204;-83
2022/03/22 03:20:09;;;;;;;4.70;4.30;;;;;;;;;;5079676;28;20212;-82
2022/03/22 03:22:37;;;;;;;4.72;3.90;;;;;;;;;;5079705;28;20692;-83
2022/03/22 03:25:08;;;;;;;5.80;5.30;;;;;;;;;;5080298;28;20201;-83
2022/03/22 03:27:35;;;;;;;4.60;4.20;;;;;;;;;;5079654;28;20209;-83
2022/03/22 03:30:04;;;;;;;5.25;4.75;;;;;;;;;;5079437;28;20212;-83
2022/03/22 03:32:31;;;;;;;5.03;4.45;;;;;;;;;;5079419;28;20298;-82
2022/03/22 03:35:00;;;;;;;5.32;4.82;;;;;;;;;;5079122;28;20212;-82
2022/03/22 03:37:29;;;;;;;5.45;4.78;;;;;;;;;;5080212;28;20212;-83
2022/03/22 03:39:56;;;;;;;5.63;5.13;;;;;;;;;;5079161;28;20644;-82
2022/03/22 03:42:24;;;;;;;5.85;5.15;;;;;;;;;;5079086;28;20252;-83
2022/03/22 03:47:36;;;;;;;6.05;5.05;;;;;;;;;;5078941;28;20211;-82
2022/03/22 03:50:07;;;;;;;6.13;5.53;;;;;;;;;;5077985;28;20755;-83
2022/03/22 03:52:36;;;;;;;8.57;7.18;;;;;;;;;;5079206;28;20586;-83
2022/03/22 03:55:06;;;;;;;8.23;7.43;;;;;;;;;;5078403;28;20223;-82
2022/03/22 03:57:35;;;;;;;6.75;6.15;;;;;;;;;;5078168;28;20205;-83
2022/03/22 04:00:03;;;;;;;8.50;7.25;;;;;;;;;;5078749;28;20201;-82
2022/03/22 04:02:31;;;;;;;9.32;8.13;;;;;;;;;;5078572;28;20243;-83
2022/03/22 04:04:58;;;;;;;10.00;8.95;;;;;;;;;;5078536;28;20212;-82
2022/03/22 04:07:28;;;;;;;10.55;9.45;;;;;;;;;;5078054;28;20201;-83
2022/03/22 04:09:56;;;;;;;9.10;8.13;;;;;;;;;;5078102;28;20193;-83
2022/03/22 04:12:23;;;;;;;10.18;8.70;;;;;;;;;;5076763;28;20342;-83
2022/03/22 04:14:53;;;;;;;11.00;9.90;;;;;;;;;;5078087;28;20197;-83
2022/03/22 04:17:22;;;;;;;10.40;9.02;;;;;;;;;;5078511;28;20197;-83
2022/03/22 04:19:49;;;;;;;9.50;8.55;;;;;;;;;;5079098;28;20251;-83
2022/03/22 04:22:18;;;;;;;11.85;9.30;;;;;;;;;;5078039;28;20278;-83
2022/03/22 04:24:47;;;;;;;14.48;9.10;;;;;;;;;;5078798;28;20200;-83
2022/03/22 04:32:44;;;;;;;9.98;8.48;;;;;;;;;;5078640;28;20235;-82
2022/03/22 04:35:12;;;;;;;8.13;6.97;;;;;;;;;;5078091;28;20231;-82
2022/03/22 04:37:40;;;;;;;11.05;8.93;;;;;;;;;;5078529;28;20247;-82
2022/03/22 04:40:11;;;;;;;9.05;8.20;;;;;;;;;;5078288;28;20614;-82
2022/03/22 04:42:38;;;;;;;11.88;10.50;;;;;;;;;;5078480;28;20224;-83
2022/03/22 04:45:07;;;;;;;12.18;9.40;;;;;;;;;;5079109;28;20283;-83
2022/03/22 04:47:35;;;;;;;10.32;9.13;;;;;;;;;;5079421;28;20201;-82
2022/03/22 04:50:03;;;;;;;10.20;8.57;;;;;;;;;;5079612;28;20681;-82
2022/03/22 04:58:02;;;;;;;7.38;6.50;;;;;;;;;;5080208;28;20196;-82
2022/03/22 05:00:29;;;;;;;8.80;7.90;;;;;;;;;;5079416;28;20209;-82
2022/03/22 05:02:57;;;;;;;8.07;6.32;;;;;;;;;;5080642;28;20248;-83
2022/03/22 05:08:06;;;;;;;6.00;5.40;;;;;;;;;;5082688;28;20197;-83
2022/03/22 05:10:35;;;;;;;7.00;6.03;;;;;;;;;;5083686;28;20359;-84
2022/03/22 05:13:03;;;;;;;7.38;6.63;;;;;;;;;;5084202;28;20217;-83
2022/03/22 05:15:32;;;;;;;7.00;5.68;;;;;;;;;;5085392;28;20231;-84
2022/03/22 05:17:59;;;;;;;9.02;6.22;;;;;;;;;;5084767;28;20681;-84
2022/03/22 05:20:27;;;;;;;7.53;6.82;;;;;;;;;;5083772;28;20205;-84
2022/03/22 05:22:54;;;;;;;6.53;5.90;;;;;;;;;;5082868;28;20292;-83
2022/03/22 05:25:21;;;;;;;10.77;7.90;;;;;;;;;;5084530;28;20208;-83
2022/03/22 05:27:50;;;;;;;7.28;6.57;;;;;;;;;;5083680;28;20201;-83
2022/03/22 05:30:17;;;;;;;7.88;7.18;;;;;;;;;;5083777;28;20386;-83
2022/03/22 05:32:45;;;;;;;8.05;7.22;;;;;;;;;;5083402;28;20240;-84
2022/03/22 05:35:12;;;;;;;8.68;7.28;;;;;;;;;;5083550;28;20209;-83
2022/03/22 05:37:39;;;;;;;10.13;8.23;;;;;;;;;;5083020;28;20279;-84
2022/03/22 05:40:08;;;;;;;9.93;8.43;;;;;;;;;;5082378;28;20197;-84
2022/03/22 05:42:37;;;;;;;7.82;6.65;;;;;;;;;;5082017;28;20284;-84
2022/03/22 05:45:10;;;;;;;7.70;6.93;;;;;;;;;;5092649;28;20263;-83
2022/03/22 05:47:37;;;;;;;9.48;8.50;;;;;;;;;;5090445;28;20684;-77
2022/03/22 05:50:06;;;;;;;8.95;8.05;;;;;;;;;;5090902;28;20243;-77
2022/03/22 05:52:34;;;;;;;7.57;6.68;;;;;;;;;;5087623;28;20225;-77
2022/03/22 05:55:01;;;;;;;8.15;7.03;;;;;;;;;;5079131;28;20208;-77
2022/03/22 05:57:29;;;;;;;7.45;6.65;;;;;;;;;;5078456;28;20227;-77
2022/03/22 05:59:56;;;;;;;6.65;6.03;;;;;;;;;;5078356;28;20236;-77
2022/03/22 06:02:26;;;;;;;9.07;6.88;;;;;;;;;;5077413;28;20220;-77
2022/03/22 06:04:53;;;;;;;9.35;7.65;;;;;;;;;;5077761;28;20215;-77
2022/03/22 06:07:21;;;;;;;8.15;7.22;;;;;;;;;;5077827;28;20205;-76
2022/03/22 06:09:49;;;;;;;8.85;8.05;;;;;;;;;;5078202;28;20201;-77
2022/03/22 06:12:18;;;;;;;7.95;6.88;;;;;;;;;;5077666;28;20221;-78
2022/03/22 06:14:45;;;;;;;7.60;6.88;;;;;;;;;;5076184;28;20573;-76
2022/03/22 06:17:12;;;;;;;7.30;6.22;;;;;;;;;;5074523;28;20709;-76
2022/03/22 06:19:41;;;;;;;6.50;5.90;;;;;;;;;;5074915;28;20201;-77
2022/03/22 06:22:08;;;;;;;7.72;7.05;;;;;;;;;;5074831;28;20270;-77
2022/03/22 06:24:35;;;;;;;7.70;6.90;;;;;;;;;;5075883;28;20232;-77
2022/03/22 06:27:03;;;;;;;9.38;7.40;;;;;;;;;;5075080;28;20691;-77
2022/03/22 06:29:30;;;;;;;8.07;6.85;;;;;;;;;;5075437;28;20665;-78
2022/03/22 06:31:57;;;;;;;8.07;7.28;;;;;;;;;;5077902;28;20219;-78
2022/03/22 06:34:25;;;;;;;8.32;7.55;;;;;;;;;;5076296;28;20197;-78
2022/03/22 06:36:54;;;;;;;9.98;8.63;;;;;;;;;;5075103;28;20204;-78
2022/03/22 06:39:21;;;;;;;9.15;8.25;;;;;;;;;;5081280;28;20250;-78
2022/03/22 06:41:49;;;;;;;12.15;9.02;;;;;;;;;;5075938;28;20674;-78
2022/03/22 06:44:16;;;;;;;14.32;12.55;;;;;;;;;;5075418;28;20240;-78
2022/03/22 06:46:43;;;;;;;15.95;11.52;;;;;;;;;;5075812;28;20204;-78
2022/03/22 06:49:10;;;;;;;12.27;10.98;;;;;;;;;;5075401;28;20205;-78
2022/03/22 06:51:38;;;;;;;13.60;10.75;;;;;;;;;;5074745;28;20683;-78
2022/03/22 06:54:06;;;;;;;10.95;9.85;;;;;;;;;;5075533;28;20669;-78
2022/03/22 06:56:34;;;;;;;12.55;9.82;;;;;;;;;;5075364;28;20212;-78
2022/03/22 06:59:01;;;;;;;12.50;10.35;;;;;;;;;;5075105;28;20205;-78
2022/03/22 07:01:28;;;;;;;13.07;10.07;;;;;;;;;;5074972;28;20205;-77
2022/03/22 07:03:56;;;;;;;12.57;10.43;;;;;;;;;;5074414;28;20224;-77
2022/03/22 07:06:24;;;;;;;12.45;10.60;;;;;;;;;;5074911;28;20208;-77
2022/03/22 07:08:52;;;;;;;9.73;8.73;;;;;;;;;;5074293;28;20706;-77
2022/03/22 07:14:11;;;;;;;9.23;7.70;;;;;;;;;;5051961;28;20567;-77
2022/03/22 07:16:38;;;;;;;8.68;7.78;;;;;;;;;;5074075;28;20209;-77
2022/03/22 07:19:06;;;;;;;7.68;6.95;;;;;;;;;;5073646;28;20262;-77
2022/03/22 07:21:33;;;;;;;7.28;6.60;;;;;;;;;;5074383;28;20232;-77
2022/03/22 07:24:01;;;;;;;8.85;7.95;;;;;;;;;;5074001;28;20648;-77
2022/03/22 07:26:30;;;;;;;8.88;7.97;;;;;;;;;;5077423;28;20222;-77
2022/03/22 07:28:57;;;;;;;8.00;7.25;;;;;;;;;;5073692;28;20683;-77
2022/03/22 07:31:24;;;;;;;9.80;8.80;;;;;;;;;;5073316;28;20209;-77
2022/03/22 07:33:52;;;;;;;10.43;9.35;;;;;;;;;;5073930;28;20228;-77
2022/03/22 07:36:19;;;;;;;11.02;9.93;;;;;;;;;;5074513;28;20212;-77
2022/03/22 07:38:47;;;;;;;11.15;10.05;;;;;;;;;;5074135;28;20197;-78
2022/03/22 07:41:14;;;;;;;12.48;10.98;;;;;;;;;;5074616;28;20201;-78
2022/03/22 07:43:43;;;;;;;9.20;8.40;;;;;;;;;;5080318;28;20233;-76
2022/03/22 07:46:10;;;;;;;11.50;10.35;;;;;;;;;;5083321;28;20209;-77
2022/03/22 07:48:37;;;;;;;8.73;7.88;;;;;;;;;;5084037;28;20239;-77
2022/03/22 07:53:50;;;;;;;10.70;9.60;;;;;;;;;;5083189;28;20695;-76
2022/03/22 07:56:17;;;;;;;11.10;10.02;;;;;;;;;;5078767;28;20208;-77
2022/03/22 07:58:45;;;;;;;11.18;10.00;;;;;;;;;;5077394;28;20205;-78
2022/03/22 08:01:13;;;;;;;10.68;9.57;;;;;;;;;;5074744;28;20215;-78
2022/03/22 08:03:40;;;;;;;11.63;10.32;;;;;;;;;;5073460;28;20232;-77
2022/03/22 08:06:08;;;;;;;11.23;10.02;;;;;;;;;;5073328;28;20216;-77
2022/03/22 08:08:37;;;;;;;14.90;11.70;;;;;;;;;;5073733;28;20256;-79
2022/03/22 08:11:06;;;;;;;13.02;11.73;;;;;;;;;;5074748;28;20254;-79
2022/03/22 08:13:34;;;;;;;13.18;10.45;;;;;;;;;;5077799;28;20252;-79
2022/03/22 08:16:03;;;;;;;10.90;9.65;;;;;;;;;;5079512;28;20197;-79
2022/03/22 08:18:30;;;;;;;11.68;10.48;;;;;;;;;;5078140;28;20196;-79
2022/03/22 08:20:57;;;;;;;11.18;9.60;;;;;;;;;;5085313;28;20201;-79
2022/03/22 08:23:25;;;;;;;9.05;8.15;;;;;;;;;;5086939;28;20239;-79
2022/03/22 08:25:52;;;;;;;9.77;8.80;;;;;;;;;;5090142;28;20292;-79
2022/03/22 08:28:21;;;;;;;11.15;9.15;;;;;;;;;;5089750;28;20215;-79
2022/03/22 08:30:48;;;;;;;9.40;8.18;;;;;;;;;;5093903;28;20196;-79
2022/03/22 08:33:17;;;;;;;9.65;8.10;;;;;;;;;;5076360;28;20237;-80
2022/03/22 08:35:46;;;;;;;9.98;8.45;;;;;;;;;;5075071;28;20204;-80
2022/03/22 08:38:14;;;;;;;13.02;10.30;;;;;;;;;;5075600;28;20207;-80
2022/03/22 08:40:41;;;;;;;8.68;7.82;;;;;;;;;;5076533;28;20205;-80
2022/03/22 08:43:09;;;;;;;9.50;8.50;;;;;;;;;;5074938;28;20727;-79
2022/03/22 08:45:37;;;;;;;10.20;8.20;;;;;;;;;;5073977;28;20231;-79
2022/03/22 08:48:09;;;;;;;8.48;7.20;;;;;;;;;;5075655;28;20211;-80
2022/03/22 08:50:39;;;;;;;8.68;7.88;;;;;;;;;;5075125;28;20738;-80
2022/03/22 08:53:06;;;;;;;7.30;6.57;;;;;;;;;;5068896;28;20225;-80
2022/03/22 08:55:34;;;;;;;7.38;6.68;;;;;;;;;;5068773;28;20701;-80
2022/03/22 08:58:05;;;;;;;8.32;7.07;;;;;;;;;;5068774;28;20204;-80
2022/03/22 09:00:33;;;;;;;8.18;7.03;;;;;;;;;;5068745;28;20279;-83
2022/03/22 09:03:02;;;;;;;7.85;7.07;;;;;;;;;;5073931;28;20251;-81
2022/03/22 09:08:15;;;;;;;9.25;8.35;;;;;;;;;;5076565;28;20266;-80
2022/03/22 09:10:43;;;;;;;6.47;5.85;;;;;;;;;;5075420;28;20262;-81
2022/03/22 09:13:10;;;;;;;7.72;6.93;;;;;;;;;;5073741;28;20773;-81
2022/03/22 09:15:39;;;;;;;6.10;5.50;;;;;;;;;;5074679;28;20212;-82
2022/03/22 09:18:13;;;;;;;12.55;10.68;;;;;;;;;;5073838;28;20300;-81
2022/03/22 09:20:41;;;;;;;9.10;6.60;;;;;;;;;;5074281;28;20200;-83
2022/03/22 09:23:08;;;;;;;8.73;7.72;;;;;;;;;;5074041;28;20220;-80
2022/03/22 09:25:38;;;;;;;7.35;6.65;;;;;;;;;;5076502;28;20278;-82
2022/03/22 09:28:06;;;;;;;10.10;7.50;;;;;;;;;;5075192;28;20229;-81
2022/03/22 09:30:34;;;;;;;8.55;7.20;;;;;;;;;;5075739;28;20236;-80
2022/03/22 09:33:04;;;;;;;8.35;7.18;;;;;;;;;;5077071;28;20263;-81
2022/03/22 09:35:32;;;;;;;7.75;6.68;;;;;;;;;;5076967;28;20288;-81
2022/03/22 09:38:00;;;;;;;7.10;6.40;;;;;;;;;;5075450;28;20213;-81
2022/03/22 09:40:28;;;;;;;5.38;4.88;;;;;;;;;;5075543;28;20213;-80
2022/03/22 09:42:57;;;;;;;7.07;6.32;;;;;;;;;;5074633;28;20221;-80
2022/03/22 09:45:27;;;;;;;6.20;5.28;;;;;;;;;;5078386;28;20228;-80
2022/03/22 09:47:55;;;;;;;7.55;6.85;;;;;;;;;;5075970;28;20276;-80
2022/03/22 09:51:44;;;;;;;9.95;8.90;;;;;;;;;;5076531;28;20220;-80
2022/03/22 09:53:11;;;;;;;6.10;5.55;;;;;;;;;;5078751;28;20221;-81
2022/03/22 09:55:40;;;;;;;6.15;5.55;;;;;;;;;;5078568;28;20201;-80
2022/03/22 09:58:09;;;;;;;8.45;7.75;;;;;;;;;;5079421;28;20201;-81
2022/03/22 10:00:36;;;;;;;8.43;6.10;;;;;;;;;;5079532;28;20288;-80
2022/03/22 10:03:04;;;;;;;6.40;5.90;;;;;;;;;;5079723;28;20227;-80
2022/03/22 10:05:31;;;;;;;7.63;6.90;;;;;;;;;;5078569;28;20281;-80
2022/03/22 10:08:00;;;;;;;6.78;6.18;;;;;;;;;;5079778;28;20625;-81
2022/03/22 10:10:28;;;;;;;6.57;5.97;;;;;;;;;;5078545;28;20262;-80
2022/03/22 10:13:01;;;;;;;8.50;7.07;;;;;;;;;;5077292;28;20320;-80
2022/03/22 10:15:36;;;;;;;6.35;5.75;;;;;;;;;;5082600;28;20722;-79
2022/03/22 10:18:06;;;;;;;5.47;4.93;;;;;;;;;;5086656;28;20258;-79
2022/03/22 10:20:36;;;;;;;4.65;4.13;;;;;;;;;;5078543;28;20258;-79
2022/03/22 10:23:05;;;;;;;4.15;3.85;;;;;;;;;;5076158;28;20217;-79
2022/03/22 10:25:34;;;;;;;4.57;4.18;;;;;;;;;;5076963;28;20277;-80
2022/03/22 10:28:03;;;;;;;4.53;4.18;;;;;;;;;;5076177;28;20226;-81
2022/03/22 10:30:34;;;;;;;4.43;3.95;;;;;;;;;;5077288;28;20730;-79
2022/03/22 10:33:02;;;;;;;5.03;4.60;;;;;;;;;;5076585;28;20229;-80
2022/03/22 10:35:32;;;;;;;8.35;6.85;;;;;;;;;;5077776;28;20208;-80
2022/03/22 10:38:01;;;;;;;6.93;6.30;;;;;;;;;;5076371;28;20243;-80
2022/03/22 10:40:31;;;;;;;5.63;5.03;;;;;;;;;;5076035;28;20584;-80
2022/03/22 10:43:00;;;;;;;6.45;5.57;;;;;;;;;;5075570;28;20225;-79
2022/03/22 10:45:28;;;;;;;6.53;5.78;;;;;;;;;;5075854;28;20610;-80
2022/03/22 10:47:58;;;;;;;6.85;5.85;;;;;;;;;;5075760;28;20254;-79
2022/03/22 10:50:26;;;;;;;5.05;4.60;;;;;;;;;;5076254;28;20633;-79
2022/03/22 10:52:56;;;;;;;5.57;4.95;;;;;;;;;;5075315;28;20274;-79
2022/03/22 10:55:27;;;;;;;6.93;6.20;;;;;;;;;;5069518;28;20209;-80
2022/03/22 10:57:57;;;;;;;6.72;6.07;;;;;;;;;;5076174;28;20213;-80
2022/03/22 11:00:26;;;;;;;7.22;6.53;;;;;;;;;;5074915;28;20258;-79
2022/03/22 11:02:56;;;;;;;6.70;6.00;;;;;;;;;;5075075;28;20225;-80
2022/03/22 11:05:27;;;;;;;7.53;6.82;;;;;;;;;;5075412;28;20270;-79
2022/03/22 11:07:55;;;;;;;5.90;5.30;;;;;;;;;;5075480;28;20236;-79
2022/03/22 11:10:29;;;;;;;6.70;6.10;;;;;;;;;;5075147;28;20208;-79
2022/03/22 11:12:58;;;;;;;6.45;5.95;;;;;;;;;;5074513;28;20225;-79
2022/03/22 11:15:26;;;;;;;7.90;6.50;;;;;;;;;;5075632;28;20201;-80
2022/03/22 11:17:54;;;;;;;7.65;6.85;;;;;;;;;;5075604;28;20633;-81
2022/03/22 11:20:25;;;;;;;8.50;7.60;;;;;;;;;;5075886;28;20212;-80
2022/03/22 11:22:55;;;;;;;6.75;6.15;;;;;;;;;;5074770;28;20368;-79
2022/03/22 11:25:28;;;;;;;7.15;6.45;;;;;;;;;;5075281;28;20266;-80
2022/03/22 11:27:58;;;;;;;5.82;5.30;;;;;;;;;;5075457;28;20589;-80
2022/03/22 11:30:28;;;;;;;7.10;6.38;;;;;;;;;;5074341;28;20693;-80
2022/03/22 11:35:56;;;;;;;6.90;6.28;;;;;;;;;;5069059;28;20212;-80
2022/03/22 11:38:44;;;;;;;6.60;5.93;;;;;;;;;;5074455;28;20677;-80
2022/03/22 11:44:12;;;;;;;4.25;3.90;;;;;;;;;;5072796;28;20251;-80
2022/03/22 11:46:40;;;;;;;5.75;5.18;;;;;;;;;;5074527;28;20258;-80
2022/03/22 11:49:16;;;;;;;6.82;6.13;;;;;;;;;;5078280;28;20207;-80
2022/03/22 11:51:57;;;;;;;6.03;5.53;;;;;;;;;;5073761;28;20200;-80
2022/03/22 11:54:27;;;;;;;6.25;5.25;;;;;;;;;;5074515;28;20253;-79
2022/03/22 11:56:58;;;;;;;6.13;5.63;;;;;;;;;;5074231;28;20205;-79
2022/03/22 11:59:26;;;;;;;6.68;6.07;;;;;;;;;;5067158;28;20235;-80
2022/03/22 12:02:05;;;;;;;6.50;5.90;;;;;;;;;;5072164;28;20205;-80
2022/03/22 12:04:43;;;;;;;7.88;7.22;;;;;;;;;;5068889;28;20211;-80
2022/03/22 12:07:13;;;;;;;6.82;6.22;;;;;;;;;;5073938;28;20635;-80
2022/03/22 12:09:44;;;;;;;7.13;5.82;;;;;;;;;;5073702;28;20205;-80
2022/03/22 12:12:16;;;;;;;7.32;6.55;;;;;;;;;;5073047;28;20233;-80
2022/03/22 12:14:47;;;;;;;4.72;4.20;;;;;;;;;;5073677;28;20213;-80
2022/03/22 12:17:15;;;;;;;4.35;3.95;;;;;;;;;;5073457;28;20204;-79
2022/03/22 12:19:42;;;;;;;5.30;4.80;;;;;;;;;;5073031;28;20687;-80
2022/03/22 12:22:11;;;;;;;4.90;4.45;;;;;;;;;;5072435;28;20577;-79
2022/03/22 12:24:38;;;;;;;5.50;4.32;;;;;;;;;;5073349;28;20201;-80
2022/03/22 12:27:08;;;;;;;4.78;4.38;;;;;;;;;;5073542;28;20229;-80
2022/03/22 12:29:44;;;;;;;5.30;4.80;;;;;;;;;;5073630;28;20250;-79
2022/03/22 12:32:18;;;;;;;7.28;6.68;;;;;;;;;;5073098;28;20263;-78
2022/03/22 12:34:46;;;;;;;6.00;5.50;;;;;;;;;;5075531;28;20692;-79
2022/03/22 12:37:16;;;;;;;6.53;5.88;;;;;;;;;;5075468;28;20209;-79
2022/03/22 12:39:45;;;;;;;4.93;4.53;;;;;;;;;;5078703;28;20549;-79
2022/03/22 12:42:15;;;;;;;6.40;5.80;;;;;;;;;;5073966;28;20228;-80
2022/03/22 12:44:43;;;;;;;5.70;5.20;;;;;;;;;;5075097;28;20223;-80
2022/03/22 12:47:11;;;;;;;6.68;5.85;;;;;;;;;;5074269;28;20232;-80
2022/03/22 12:49:40;;;;;;;6.22;5.65;;;;;;;;;;5077075;28;20209;-80
2022/03/22 12:52:09;;;;;;;7.95;7.15;;;;;;;;;;5072687;28;20705;-78
2022/03/22 12:54:41;;;;;;;7.35;6.68;;;;;;;;;;5079235;28;20205;-79
2022/03/22 12:57:11;;;;;;;5.07;4.63;;;;;;;;;;5076246;28;20291;-79
2022/03/22 12:59:39;;;;;;;4.82;4.43;;;;;;;;;;5076224;28;20208;-78
2022/03/22 13:02:07;;;;;;;4.13;3.75;;;;;;;;;;5075632;28;20232;-79
2022/03/22 13:04:46;;;;;;;3.55;3.25;;;;;;;;;;5076766;28;20215;-78
2022/03/22 13:07:14;;;;;;;6.68;5.82;;;;;;;;;;5080927;28;20221;-79
2022/03/22 13:12:31;;;;;;;7.03;6.43;;;;;;;;;;5074730;28;20308;-79
2022/03/22 13:15:08;;;;;;;5.00;4.60;;;;;;;;;;5076176;28;20605;-78
2022/03/22 13:17:42;;;;;;;5.10;4.70;;;;;;;;;;5075342;28;20205;-78
2022/03/22 13:20:15;;;;;;;3.25;2.95;;;;;;;;;;5075580;28;20231;-79
2022/03/22 13:22:54;;;;;;;4.30;3.97;;;;;;;;;;5075496;28;20308;-79
2022/03/22 13:25:30;;;;;;;5.50;5.00;;;;;;;;;;5079441;28;20205;-78
2022/03/22 13:27:59;;;;;;;4.38;3.97;;;;;;;;;;5081374;28;20228;-79
2022/03/22 13:30:29;;;;;;;3.75;3.45;;;;;;;;;;5079987;28;20209;-78
2022/03/22 13:33:07;;;;;;;5.43;4.93;;;;;;;;;;5078820;28;20243;-78
2022/03/22 13:35:35;;;;;;;4.72;4.22;;;;;;;;;;5077445;28;20680;-79
2022/03/22 13:38:06;;;;;;;4.65;4.25;;;;;;;;;;5075915;28;20213;-78
2022/03/22 13:40:39;;;;;;;5.35;4.85;;;;;;;;;;5076354;28;20228;-78
2022/03/22 13:43:09;;;;;;;7.07;5.85;;;;;;;;;;5078295;28;20228;-78
2022/03/22 13:45:37;;;;;;;6.03;5.38;;;;;;;;;;5077378;28;20625;-78
2022/03/22 13:48:09;;;;;;;6.57;5.97;;;;;;;;;;5076483;28;20229;-78
2022/03/22 13:50:38;;;;;;;7.07;6.38;;;;;;;;;;5077325;28;20201;-78
2022/03/22 13:53:08;;;;;;;6.35;5.75;;;;;;;;;;5077015;28;20225;-78
2022/03/22 13:55:39;;;;;;;5.68;4.63;;;;;;;;;;5077107;28;20232;-78
2022/03/22 13:58:13;;;;;;;6.78;6.10;;;;;;;;;;5076396;28;20228;-79
2022/03/22 14:00:41;;;;;;;6.63;6.00;;;;;;;;;;5076874;28;20205;-78
2022/03/22 14:03:10;;;;;;;6.03;5.43;;;;;;;;;;5076285;28;20294;-79
2022/03/22 14:05:39;;;;;;;5.25;4.80;;;;;;;;;;5076934;28;20625;-78
2022/03/22 14:08:07;;;;;;;5.45;4.95;;;;;;;;;;5076132;28;20708;-78
2022/03/22 14:10:35;;;;;;;7.60;6.90;;;;;;;;;;5076410;28;20295;-77
2022/03/22 14:13:05;;;;;;;6.07;5.47;;;;;;;;;;5075638;28;20229;-78
2022/03/22 14:15:33;;;;;;;6.35;5.75;;;;;;;;;;5075716;28;20259;-79
2022/03/22 14:18:01;;;;;;;5.60;4.95;;;;;;;;;;5075467;28;20201;-79
2022/03/22 14:20:29;;;;;;;7.30;5.75;;;;;;;;;;5075651;28;20303;-79
2022/03/22 14:22:58;;;;;;;4.88;4.38;;;;;;;;;;5076077;28;20224;-78
2022/03/22 14:25:26;;;;;;;4.57;4.18;;;;;;;;;;5076348;28;20213;-78
2022/03/22 14:27:56;;;;;;;5.55;4.78;;;;;;;;;;5076689;28;20225;-78
2022/03/22 14:30:28;;;;;;;3.72;3.42;;;;;;;;;;5075571;28;20209;-79
2022/03/22 14:32:57;;;;;;;4.13;3.72;;;;;;;;;;5075928;28;20332;-79
2022/03/22 14:38:13;;;;;;;2.38;2.17;;;;;;;;;;5075204;28;20216;-79
2022/03/22 14:40:42;;;;;;;3.45;3.15;;;;;;;;;;5074690;28;20204;-79
2022/03/22 14:43:10;;;;;;;3.60;3.30;;;;;;;;;;5077612;28;20221;-79
2022/03/22 14:45:39;;;;;;;5.55;4.88;;;;;;;;;;5075514;28;20216;-79
2022/03/22 14:48:07;;;;;;;6.45;5.85;;;;;;;;;;5075418;28;20228;-79
2022/03/22 14:50:36;;;;;;;6.80;4.95;;;;;;;;;;5075138;28;20522;-79
2022/03/22 14:55:50;;;;;;;2.90;2.70;;;;;;;;;;5075494;28;20239;-79
2022/03/22 15:01:04;;;;;;;2.58;2.38;;;;;;;;;;5079187;28;20263;-79
2022/03/22 15:03:32;;;;;;;4.40;4.00;;;;;;;;;;5078871;28;20221;-79
2022/03/22 15:06:00;;;;;;;5.90;5.40;;;;;;;;;;5079303;28;20209;-78
2022/03/22 15:08:28;;;;;;;5.93;5.32;;;;;;;;;;5079604;28;20221;-78
2022/03/22 15:10:56;;;;;;;5.07;4.18;;;;;;;;;;5079472;28;20588;-79
2022/03/22 15:13:25;;;;;;;5.03;4.55;;;;;;;;;;5075954;28;20232;-80
2022/03/22 15:15:54;;;;;;;4.65;4.25;;;;;;;;;;5077691;28;20304;-79
2022/03/22 15:18:23;;;;;;;3.40;3.10;;;;;;;;;;5077255;28;20231;-79
2022/03/22 15:20:51;;;;;;;3.60;3.30;;;;;;;;;;5076633;28;20668;-80
2022/03/22 15:23:18;;;;;;;3.25;2.92;;;;;;;;;;5075402;28;20224;-79
2022/03/22 15:25:48;;;;;;;2.95;2.75;;;;;;;;;;5075888;28;20205;-79
2022/03/22 15:28:17;;;;;;;2.45;2.25;;;;;;;;;;5077058;28;20232;-79
2022/03/22 15:30:45;;;;;;;3.55;3.10;;;;;;;;;;5080299;28;20217;-79
2022/03/22 15:33:13;;;;;;;4.22;3.83;;;;;;;;;;5077553;28;20233;-79
2022/03/22 15:35:43;;;;;;;3.20;2.90;;;;;;;;;;5077430;28;20209;-80